createdAt,value
2023-01-26T00:02:21.990Z,43.67
2023-01-26T00:04:49.105Z,43.97
2023-01-26T00:07:16.183Z,44.07
2023-01-26T00:09:43.299Z,46.57
2023-01-26T00:12:10.389Z,46.50
2023-01-26T00:14:50.146Z,43.87
2023-01-26T00:17:25.817Z,45.63
2023-01-26T00:19:57.381Z,41.87
2023-01-26T00:22:25.307Z,43.43
2023-01-26T00:24:52.410Z,45.33
2023-01-26T00:27:19.557Z,41.83
2023-01-26T00:29:46.668Z,43.37
2023-01-26T00:32:13.852Z,41.73
2023-01-26T00:34:41.002Z,43.80
2023-01-26T00:37:08.128Z,40.50
2023-01-26T00:39:35.235Z,43.73
2023-01-26T00:42:13.215Z,43.13
2023-01-26T00:44:41.526Z,44.00
2023-01-26T00:47:09.627Z,44.33
2023-01-26T00:49:37.918Z,42.93
2023-01-26T00:52:06.284Z,45.20
2023-01-26T00:54:33.599Z,40.70
2023-01-26T00:57:00.728Z,42.57
2023-01-26T00:59:28.122Z,45.77
2023-01-26T01:01:55.290Z,44.87
2023-01-26T01:04:22.428Z,45.80
2023-01-26T01:06:49.532Z,42.13
2023-01-26T01:09:16.632Z,41.80
2023-01-26T01:11:45.521Z,41.37
2023-01-26T01:14:13.462Z,41.57
2023-01-26T01:16:41.027Z,41.60
2023-01-26T01:19:08.560Z,43.17
2023-01-26T01:21:36.324Z,41.23
2023-01-26T01:24:03.616Z,42.30
2023-01-26T01:26:30.723Z,42.17
2023-01-26T01:29:03.165Z,40.97
2023-01-26T01:31:30.407Z,42.53
2023-01-26T01:33:57.797Z,42.60
2023-01-26T01:36:24.968Z,40.53
2023-01-26T01:38:52.253Z,42.83
2023-01-26T01:41:20.572Z,41.30
2023-01-26T01:43:47.856Z,39.57
2023-01-26T01:46:21.731Z,39.97
2023-01-26T01:48:58.836Z,40.07
2023-01-26T01:51:38.625Z,40.23
2023-01-26T01:54:12.841Z,39.97
2023-01-26T01:56:42.518Z,38.77
2023-01-26T01:59:10.864Z,38.17
2023-01-26T02:01:38.002Z,42.10
2023-01-26T02:04:06.112Z,38.90
2023-01-26T02:06:50.003Z,41.83
2023-01-26T02:09:37.949Z,40.17
2023-01-26T02:12:07.064Z,40.67
2023-01-26T02:14:34.487Z,39.87
2023-01-26T02:17:01.580Z,40.40
2023-01-26T02:19:35.286Z,38.50
2023-01-26T02:22:08.526Z,40.53
2023-01-26T02:24:37.055Z,38.47
2023-01-26T02:27:04.274Z,41.10
2023-01-26T02:29:31.465Z,39.07
2023-01-26T02:31:58.590Z,36.70
2023-01-26T02:34:28.919Z,36.87
2023-01-26T02:37:00.192Z,39.20
2023-01-26T02:39:50.467Z,36.97
2023-01-26T02:42:36.201Z,37.70
2023-01-26T02:45:03.325Z,39.27
2023-01-26T02:47:30.414Z,39.63
2023-01-26T02:49:58.690Z,41.43
2023-01-26T02:52:26.828Z,38.87
2023-01-26T02:55:13.001Z,38.93
2023-01-26T02:57:40.373Z,39.53
2023-01-26T03:00:12.303Z,38.03
2023-01-26T03:02:40.524Z,38.03
2023-01-26T03:05:07.803Z,40.07
2023-01-26T03:07:34.927Z,41.00
2023-01-26T03:10:02.034Z,38.37
2023-01-26T03:12:29.111Z,41.60
2023-01-26T03:15:14.884Z,39.53
2023-01-26T03:17:41.966Z,42.47
2023-01-26T03:20:29.287Z,41.13
2023-01-26T03:23:15.391Z,38.13
2023-01-26T03:26:01.151Z,39.57
2023-01-26T03:28:28.225Z,41.87
2023-01-26T03:30:56.790Z,37.20
2023-01-26T03:33:24.278Z,40.27
2023-01-26T03:35:53.725Z,39.47
2023-01-26T03:38:20.874Z,40.50
2023-01-26T03:41:06.428Z,39.33
2023-01-26T03:43:52.528Z,38.63
2023-01-26T03:46:38.185Z,37.97
2023-01-26T03:49:24.148Z,38.07
2023-01-26T03:52:10.177Z,38.77
2023-01-26T03:54:56.060Z,39.70
2023-01-26T03:57:23.130Z,37.27
2023-01-26T03:59:50.208Z,38.10
2023-01-26T04:02:35.869Z,41.47
2023-01-26T04:05:21.792Z,38.30
2023-01-26T04:08:07.630Z,37.50
2023-01-26T04:10:34.714Z,38.60
2023-01-26T04:13:20.455Z,37.67
2023-01-26T04:16:09.034Z,37.43
2023-01-26T04:18:54.869Z,40.53
2023-01-26T04:21:33.402Z,39.87
2023-01-26T04:24:01.432Z,39.33
2023-01-26T04:26:34.836Z,41.00
2023-01-26T04:29:07.912Z,40.50
2023-01-26T04:31:35.102Z,38.83
2023-01-26T04:34:02.523Z,40.53
2023-01-26T04:36:29.810Z,39.67
2023-01-26T04:38:57.259Z,36.93
2023-01-26T04:41:24.703Z,38.57
2023-01-26T04:43:51.754Z,35.97
2023-01-26T04:46:18.815Z,39.23
2023-01-26T04:48:45.922Z,36.77
2023-01-26T04:51:14.577Z,38.93
2023-01-26T04:53:41.683Z,38.23
2023-01-26T04:56:09.396Z,37.43
2023-01-26T04:58:36.756Z,37.17
2023-01-26T05:01:03.885Z,38.40
2023-01-26T05:03:30.982Z,36.80
2023-01-26T05:05:58.051Z,36.23
2023-01-26T05:08:25.112Z,37.73
2023-01-26T05:10:52.405Z,35.53
2023-01-26T05:13:19.582Z,37.93
2023-01-26T05:15:47.619Z,38.20
2023-01-26T05:18:15.056Z,36.73
2023-01-26T05:20:42.184Z,36.80
2023-01-26T05:23:09.240Z,37.67
2023-01-26T05:25:36.499Z,39.67
2023-01-26T05:28:03.629Z,38.73
2023-01-26T05:30:30.866Z,40.43
2023-01-26T05:33:02.234Z,36.80
2023-01-26T05:35:29.314Z,39.33
2023-01-26T05:37:56.608Z,38.30
2023-01-26T05:40:24.804Z,36.80
2023-01-26T05:42:51.919Z,36.63
2023-01-26T05:45:19.187Z,37.77
2023-01-26T05:47:46.671Z,37.37
2023-01-26T05:50:14.024Z,35.77
2023-01-26T05:52:41.211Z,36.77
2023-01-26T05:55:08.497Z,37.63
2023-01-26T05:57:36.367Z,30.77
2023-01-26T06:00:04.860Z,34.43
2023-01-26T06:02:32.070Z,37.17
2023-01-26T06:04:59.145Z,33.10
2023-01-26T06:07:29.007Z,35.37
2023-01-26T06:09:56.118Z,33.50
2023-01-26T06:12:23.373Z,33.57
2023-01-26T06:14:50.573Z,35.67
2023-01-26T06:17:18.349Z,33.27
2023-01-26T06:19:45.468Z,34.17
2023-01-26T06:22:13.708Z,33.33
2023-01-26T06:24:40.966Z,34.07
2023-01-26T06:27:12.552Z,32.43
2023-01-26T06:29:39.685Z,32.60
2023-01-26T06:32:06.911Z,34.53
2023-01-26T06:34:34.024Z,34.60
2023-01-26T06:37:01.268Z,31.97
2023-01-26T06:39:28.359Z,31.57
2023-01-26T06:41:55.446Z,32.57
2023-01-26T06:44:22.748Z,33.83
2023-01-26T06:46:49.850Z,33.13
2023-01-26T06:49:16.917Z,31.03
2023-01-26T06:51:46.759Z,31.30
2023-01-26T06:54:14.386Z,30.07
2023-01-26T06:56:41.624Z,31.17
2023-01-26T06:59:10.746Z,29.20
2023-01-26T07:01:40.089Z,31.77
2023-01-26T07:04:07.353Z,32.90
2023-01-26T07:06:34.470Z,31.80
2023-01-26T07:09:01.886Z,31.80
2023-01-26T07:11:30.665Z,31.20
2023-01-26T07:13:58.024Z,31.23
2023-01-26T07:16:25.181Z,31.83
2023-01-26T07:18:54.704Z,31.80
2023-01-26T07:21:23.005Z,32.17
2023-01-26T07:23:54.142Z,29.17
2023-01-26T07:26:21.586Z,29.90
2023-01-26T07:28:48.722Z,30.43
2023-01-26T07:31:15.954Z,29.57
2023-01-26T07:33:43.159Z,30.07
2023-01-26T07:36:11.079Z,29.83
2023-01-26T07:38:38.353Z,29.77
2023-01-26T07:41:06.776Z,27.57
2023-01-26T07:43:34.794Z,28.07
2023-01-26T07:46:01.936Z,27.90
2023-01-26T07:48:31.966Z,27.70
2023-01-26T07:51:00.086Z,28.20
2023-01-26T07:53:29.150Z,27.90
2023-01-26T07:56:06.057Z,26.47
2023-01-26T07:58:33.923Z,26.47
2023-01-26T08:01:12.042Z,27.27
2023-01-26T08:03:39.247Z,24.70
2023-01-26T08:06:07.091Z,26.13
2023-01-26T08:08:34.637Z,27.30
2023-01-26T08:11:03.212Z,27.50
2023-01-26T08:13:35.802Z,26.43
2023-01-26T08:16:12.120Z,26.77
2023-01-26T08:18:39.874Z,25.83
2023-01-26T08:21:07.056Z,25.87
2023-01-26T08:23:34.397Z,26.27
2023-01-26T08:26:02.607Z,25.47
2023-01-26T08:28:29.771Z,25.40
2023-01-26T08:30:57.210Z,26.10
2023-01-26T08:33:24.763Z,24.70
2023-01-26T08:35:51.902Z,26.97
2023-01-26T08:38:19.177Z,25.30
2023-01-26T08:40:51.682Z,23.50
2023-01-26T08:43:18.744Z,21.90
2023-01-26T08:45:47.839Z,23.73
2023-01-26T08:48:15.054Z,20.23
2023-01-26T08:50:42.343Z,21.67
2023-01-26T08:53:09.527Z,20.83
2023-01-26T08:55:36.726Z,19.97
2023-01-26T08:58:04.000Z,20.03
2023-01-26T09:00:31.432Z,18.67
2023-01-26T09:03:02.704Z,19.60
2023-01-26T09:05:32.671Z,19.53
2023-01-26T09:07:59.885Z,19.03
2023-01-26T09:10:27.127Z,17.93
2023-01-26T09:12:54.235Z,19.07
2023-01-26T09:15:21.412Z,16.50
2023-01-26T09:17:51.947Z,16.00
2023-01-26T09:20:19.539Z,16.40
2023-01-26T09:22:47.180Z,14.90
2023-01-26T09:25:14.606Z,13.07
2023-01-26T09:27:41.743Z,13.50
2023-01-26T09:30:09.502Z,13.90
2023-01-26T09:32:36.619Z,13.20
2023-01-26T09:35:03.785Z,13.97
2023-01-26T09:37:31.267Z,11.87
2023-01-26T09:39:58.349Z,11.63
2023-01-26T09:42:31.399Z,10.63
2023-01-26T09:45:13.895Z,10.80
2023-01-26T09:47:43.898Z,11.23
2023-01-26T09:50:11.249Z,12.57
2023-01-26T09:52:43.229Z,10.53
2023-01-26T09:55:15.971Z,10.80
2023-01-26T09:57:58.358Z,10.43
2023-01-26T10:00:38.456Z,10.30
2023-01-26T10:03:17.757Z,9.90
2023-01-26T10:06:03.392Z,10.67
2023-01-26T10:08:31.210Z,10.40
2023-01-26T10:11:02.457Z,10.13
2023-01-26T10:13:30.467Z,9.90
2023-01-26T10:16:25.218Z,10.53
2023-01-26T10:18:55.339Z,9.43
2023-01-26T10:21:24.246Z,9.60
2023-01-26T10:23:52.592Z,10.53
2023-01-26T10:26:20.891Z,9.47
2023-01-26T10:28:49.355Z,8.43
2023-01-26T10:31:21.135Z,9.77
2023-01-26T10:33:57.604Z,9.97
2023-01-26T10:36:25.099Z,8.90
2023-01-26T10:38:52.894Z,8.83
2023-01-26T10:41:24.428Z,9.67
2023-01-26T10:44:11.088Z,10.40
2023-01-26T10:46:39.539Z,9.53
2023-01-26T10:49:09.475Z,10.60
2023-01-26T10:51:37.497Z,10.23
2023-01-26T10:54:13.703Z,9.70
2023-01-26T10:56:45.219Z,9.40
2023-01-26T10:59:14.612Z,9.73
2023-01-26T11:01:52.699Z,9.63
2023-01-26T11:04:19.958Z,9.67
2023-01-26T11:06:47.284Z,9.40
2023-01-26T11:09:14.328Z,8.53
2023-01-26T11:11:42.065Z,9.57
2023-01-26T11:14:13.911Z,9.07
2023-01-26T11:16:42.590Z,7.90
2023-01-26T11:19:14.540Z,8.83
2023-01-26T11:21:52.125Z,9.50
2023-01-26T11:24:26.233Z,8.57
2023-01-26T11:26:59.442Z,7.77
2023-01-26T11:29:55.834Z,7.93
2023-01-26T11:32:43.237Z,8.93
2023-01-26T11:35:28.792Z,8.63
2023-01-26T11:38:22.412Z,8.70
2023-01-26T11:40:58.603Z,8.00
2023-01-26T11:43:28.710Z,8.53
2023-01-26T11:46:02.804Z,8.73
2023-01-26T11:48:33.033Z,7.90
2023-01-26T11:51:06.040Z,7.87
2023-01-26T11:53:52.328Z,8.40
2023-01-26T11:56:26.364Z,7.63
2023-01-26T11:58:59.086Z,6.70
2023-01-26T12:01:28.990Z,8.37
2023-01-26T12:03:56.913Z,8.13
2023-01-26T12:06:41.508Z,7.47
2023-01-26T12:09:23.039Z,7.43
2023-01-26T12:11:50.071Z,7.60
2023-01-26T12:14:17.233Z,7.10
2023-01-26T12:16:44.319Z,7.40
2023-01-26T12:19:11.780Z,7.40
2023-01-26T12:21:40.637Z,7.53
2023-01-26T12:24:35.770Z,7.10
2023-01-26T12:26:58.624Z,7.30
2023-01-26T12:29:31.026Z,8.20
2023-01-26T12:32:14.189Z,7.67
2023-01-26T12:34:41.427Z,7.23
2023-01-26T12:37:22.428Z,8.67
2023-01-26T12:39:55.727Z,7.17
2023-01-26T12:42:22.838Z,7.13
2023-01-26T12:45:00.138Z,8.63
2023-01-26T12:47:40.920Z,7.33
2023-01-26T12:50:26.374Z,7.70
2023-01-26T12:53:06.225Z,7.00
2023-01-26T12:55:56.582Z,7.57
2023-01-26T12:58:25.945Z,8.53
2023-01-26T13:01:04.252Z,8.70
2023-01-26T13:03:42.847Z,11.97
2023-01-26T13:06:15.681Z,9.27
2023-01-26T13:08:53.889Z,11.03
2023-01-26T13:11:47.144Z,9.70
2023-01-26T13:14:33.043Z,9.67
2023-01-26T13:17:32.655Z,10.50
2023-01-26T13:20:00.127Z,10.67
2023-01-26T13:22:27.404Z,10.40
2023-01-26T13:24:57.526Z,12.73
2023-01-26T13:27:47.690Z,11.30
2023-01-26T13:30:24.344Z,13.30
2023-01-26T13:32:51.555Z,13.33
2023-01-26T13:35:21.329Z,14.83
2023-01-26T13:37:51.545Z,15.07
2023-01-26T13:40:18.626Z,14.10
2023-01-26T13:42:51.993Z,14.53
2023-01-26T13:45:24.054Z,16.60
2023-01-26T13:47:51.627Z,18.70
2023-01-26T13:50:23.388Z,14.93
2023-01-26T13:52:50.530Z,16.03
2023-01-26T13:55:25.383Z,15.00
2023-01-26T13:58:11.433Z,14.93
2023-01-26T14:00:38.519Z,15.63
2023-01-26T14:03:05.764Z,14.97
2023-01-26T14:05:35.429Z,14.43
2023-01-26T14:08:03.314Z,15.40
2023-01-26T14:10:30.420Z,16.00
2023-01-26T14:12:57.853Z,14.23
2023-01-26T14:15:30.085Z,16.57
2023-01-26T14:17:59.163Z,16.20
2023-01-26T14:20:26.243Z,17.37
2023-01-26T14:23:23.013Z,17.07
2023-01-26T14:26:01.116Z,15.33
2023-01-26T14:28:31.239Z,15.63
2023-01-26T14:31:02.598Z,15.83
2023-01-26T14:33:30.781Z,17.60
2023-01-26T14:36:02.529Z,18.13
2023-01-26T14:38:32.845Z,20.03
2023-01-26T14:41:00.744Z,17.87
2023-01-26T14:43:28.021Z,18.67
2023-01-26T14:46:04.030Z,17.13
2023-01-26T14:48:36.994Z,18.93
2023-01-26T14:51:06.829Z,16.97
2023-01-26T14:53:34.285Z,18.13
2023-01-26T14:56:01.368Z,17.20
2023-01-26T14:58:30.171Z,17.53
2023-01-26T15:00:58.910Z,17.87
2023-01-26T15:03:43.954Z,17.50
2023-01-26T15:06:13.919Z,16.17
2023-01-26T15:08:42.145Z,19.63
2023-01-26T15:11:41.674Z,17.93
2023-01-26T15:14:25.600Z,17.10
2023-01-26T15:16:53.703Z,16.33
2023-01-26T15:19:25.037Z,15.43
2023-01-26T15:21:52.249Z,16.67
2023-01-26T15:24:19.432Z,20.67
2023-01-26T15:26:46.572Z,21.30
2023-01-26T15:29:32.931Z,19.17
2023-01-26T15:32:00.318Z,18.20
2023-01-26T15:34:32.422Z,16.93
2023-01-26T15:36:59.931Z,17.50
2023-01-26T15:39:27.844Z,16.53
2023-01-26T15:42:13.529Z,17.90
2023-01-26T15:44:40.887Z,17.90
2023-01-26T15:47:12.165Z,16.27
2023-01-26T15:49:39.329Z,18.93
2023-01-26T15:52:16.523Z,18.13
2023-01-26T15:54:43.707Z,15.60
2023-01-26T15:57:14.205Z,16.80
2023-01-26T15:59:41.581Z,15.57
2023-01-26T16:02:15.784Z,15.50
2023-01-26T16:04:43.410Z,16.30
2023-01-26T16:07:14.519Z,16.00
2023-01-26T16:09:42.076Z,16.77
2023-01-26T16:12:31.689Z,17.03
2023-01-26T16:14:59.398Z,15.97
2023-01-26T16:17:26.541Z,16.13
2023-01-26T16:19:53.607Z,14.87
2023-01-26T16:22:20.660Z,15.30
2023-01-26T16:24:47.947Z,15.07
2023-01-26T16:27:15.016Z,14.70
2023-01-26T16:29:42.131Z,14.57
2023-01-26T16:32:19.745Z,14.83
2023-01-26T16:34:46.892Z,16.50
2023-01-26T16:37:13.954Z,16.17
2023-01-26T16:39:41.061Z,17.03
2023-01-26T16:42:10.534Z,16.90
2023-01-26T16:44:37.614Z,17.23
2023-01-26T16:47:05.559Z,16.60
2023-01-26T16:49:33.897Z,18.87
2023-01-26T16:52:00.989Z,19.80
2023-01-26T16:54:28.078Z,21.40
2023-01-26T16:56:55.150Z,23.20
2023-01-26T16:59:22.224Z,21.77
2023-01-26T17:01:49.327Z,19.27
2023-01-26T17:04:16.404Z,17.73
2023-01-26T17:06:43.441Z,17.33
2023-01-26T17:09:10.630Z,15.70
2023-01-26T17:11:37.695Z,16.07
2023-01-26T17:14:04.782Z,14.53
2023-01-26T17:16:34.976Z,15.27
2023-01-26T17:19:02.147Z,15.47
2023-01-26T17:21:29.217Z,15.47
2023-01-26T17:23:57.462Z,14.83
2023-01-26T17:26:24.614Z,14.83
2023-01-26T17:28:54.337Z,14.17
2023-01-26T17:31:22.266Z,13.53
2023-01-26T17:33:50.077Z,14.40
2023-01-26T17:36:18.046Z,12.17
2023-01-26T17:38:45.173Z,15.20
2023-01-26T17:41:12.380Z,13.50
2023-01-26T17:43:39.488Z,15.17
2023-01-26T17:46:12.200Z,15.00
2023-01-26T17:48:39.384Z,14.13
2023-01-26T17:51:10.558Z,14.03
2023-01-26T17:53:41.232Z,13.90
2023-01-26T17:56:09.373Z,13.70
2023-01-26T17:58:37.034Z,14.23
2023-01-26T18:01:04.896Z,14.33
2023-01-26T18:03:32.001Z,13.77
2023-01-26T18:05:59.250Z,12.00
2023-01-26T18:08:27.017Z,11.97
2023-01-26T18:10:58.014Z,11.87
2023-01-26T18:13:25.136Z,13.27
2023-01-26T18:15:52.391Z,12.30
2023-01-26T18:18:19.497Z,11.10
2023-01-26T18:20:46.641Z,10.70
2023-01-26T18:23:13.705Z,12.30
2023-01-26T18:25:41.084Z,11.67
2023-01-26T18:28:08.395Z,12.73
2023-01-26T18:30:35.519Z,11.40
2023-01-26T18:33:02.648Z,9.87
2023-01-26T18:35:29.738Z,10.27
2023-01-26T18:37:56.912Z,9.57
2023-01-26T18:40:24.057Z,9.90
2023-01-26T18:42:54.162Z,10.90
2023-01-26T18:45:21.280Z,10.37
2023-01-26T18:47:49.216Z,10.50
2023-01-26T18:50:16.821Z,9.63
2023-01-26T18:52:43.905Z,10.00
2023-01-26T18:55:11.674Z,9.67
2023-01-26T18:57:39.054Z,10.20
2023-01-26T19:00:08.070Z,11.60
2023-01-26T19:02:38.334Z,12.17
2023-01-26T19:05:06.724Z,12.87
2023-01-26T19:07:33.846Z,11.00
2023-01-26T19:10:01.027Z,11.40
2023-01-26T19:12:28.123Z,11.80
2023-01-26T19:14:55.286Z,9.83
2023-01-26T19:17:22.374Z,8.50
2023-01-26T19:19:49.460Z,11.10
2023-01-26T19:22:16.553Z,8.40
2023-01-26T19:24:43.664Z,7.37
2023-01-26T19:27:10.757Z,7.17
2023-01-26T19:29:37.878Z,5.93
2023-01-26T19:32:05.098Z,7.03
2023-01-26T19:34:33.683Z,9.73
2023-01-26T19:37:00.873Z,5.40
2023-01-26T19:39:27.947Z,4.03
2023-01-26T19:41:55.058Z,4.40
2023-01-26T19:44:22.121Z,4.00
2023-01-26T19:46:51.395Z,4.10
2023-01-26T19:49:20.085Z,3.80
2023-01-26T19:51:47.170Z,3.23
2023-01-26T19:54:14.658Z,3.93
2023-01-26T19:56:41.907Z,3.23
2023-01-26T19:59:12.906Z,3.20
2023-01-26T20:01:40.149Z,4.40
2023-01-26T20:04:09.044Z,4.30
2023-01-26T20:06:37.002Z,6.00
2023-01-26T20:09:04.749Z,14.57
2023-01-26T20:11:32.115Z,7.07
2023-01-26T20:14:00.320Z,7.80
2023-01-26T20:16:28.191Z,4.13
2023-01-26T20:18:56.080Z,4.97
2023-01-26T20:21:23.314Z,4.43
2023-01-26T20:23:55.032Z,3.37
2023-01-26T20:26:23.400Z,2.97
2023-01-26T20:28:50.578Z,2.40
2023-01-26T20:31:18.979Z,2.47
2023-01-26T20:33:47.942Z,3.33
2023-01-26T20:36:19.099Z,3.30
2023-01-26T20:38:47.368Z,2.80
2023-01-26T20:41:16.163Z,4.40
2023-01-26T20:43:57.412Z,4.27
2023-01-26T20:46:26.829Z,2.80
2023-01-26T20:48:55.561Z,3.03
2023-01-26T20:51:24.261Z,2.60
2023-01-26T20:53:51.735Z,2.90
2023-01-26T20:56:21.210Z,3.37
2023-01-26T20:58:48.440Z,2.83
2023-01-26T21:01:16.975Z,2.63
2023-01-26T21:03:44.531Z,3.30
2023-01-26T21:06:13.313Z,3.00
2023-01-26T21:08:40.521Z,3.03
2023-01-26T21:11:08.469Z,2.77
2023-01-26T21:13:36.052Z,3.30
2023-01-26T21:16:03.701Z,2.80
2023-01-26T21:18:30.874Z,3.40
2023-01-26T21:20:58.679Z,3.30
2023-01-26T21:23:25.837Z,3.37
2023-01-26T21:25:59.487Z,3.47
2023-01-26T21:28:26.697Z,3.63
2023-01-26T21:31:01.677Z,3.97
2023-01-26T21:33:29.512Z,3.60
2023-01-26T21:35:57.239Z,4.73
2023-01-26T21:38:24.465Z,4.87
2023-01-26T21:41:45.444Z,6.73
2023-01-26T21:44:16.488Z,4.40
2023-01-26T21:46:45.720Z,4.37
2023-01-26T21:49:13.389Z,4.63
2023-01-26T21:51:58.974Z,7.43
2023-01-26T21:54:26.151Z,5.37
2023-01-26T21:56:53.322Z,4.17
2023-01-26T21:59:20.377Z,5.57
2023-01-26T22:01:49.402Z,5.10
2023-01-26T22:04:18.913Z,6.17
2023-01-26T22:06:46.038Z,5.80
2023-01-26T22:09:13.797Z,5.57
2023-01-26T22:11:41.347Z,5.47
2023-01-26T22:14:09.207Z,6.73
2023-01-26T22:16:36.368Z,6.43
2023-01-26T22:19:03.904Z,7.87
2023-01-26T22:21:32.615Z,6.10
2023-01-26T22:23:59.692Z,6.40
2023-01-26T22:26:26.765Z,6.17
2023-01-26T22:28:54.644Z,5.90
2023-01-26T22:31:23.002Z,6.33
2023-01-26T22:33:51.339Z,6.03
2023-01-26T22:36:18.884Z,8.63
2023-01-26T22:38:46.569Z,7.20
2023-01-26T22:41:15.527Z,5.57
2023-01-26T22:43:42.922Z,7.30
2023-01-26T22:46:14.509Z,7.70
2023-01-26T22:48:42.525Z,6.40
2023-01-26T22:51:13.681Z,6.47
2023-01-26T22:53:41.418Z,6.60
2023-01-26T22:56:09.242Z,6.50
2023-01-26T22:58:47.751Z,8.20
2023-01-26T23:01:23.097Z,6.23
2023-01-26T23:03:54.127Z,6.47
2023-01-26T23:06:21.488Z,8.40
2023-01-26T23:08:48.556Z,6.57
2023-01-26T23:11:17.817Z,8.47
2023-01-26T23:13:46.077Z,7.80
2023-01-26T23:16:13.516Z,7.00
2023-01-26T23:18:41.060Z,7.17
2023-01-26T23:21:08.821Z,7.47
2023-01-26T23:23:36.009Z,6.60
2023-01-26T23:26:03.442Z,7.20
2023-01-26T23:28:32.624Z,7.10
2023-01-26T23:30:59.852Z,7.80
2023-01-26T23:33:27.899Z,9.20
2023-01-26T23:35:55.247Z,8.87
2023-01-26T23:38:22.985Z,9.47
2023-01-26T23:40:50.874Z,9.03
2023-01-26T23:43:18.740Z,10.03
2023-01-26T23:45:46.736Z,10.47
2023-01-26T23:48:13.845Z,8.77
2023-01-26T23:50:41.148Z,7.60
2023-01-26T23:53:08.274Z,8.80
2023-01-26T23:55:35.423Z,9.00
2023-01-26T23:58:02.598Z,8.77
